<?xml version="1.0" encoding="UTF-8" standalone="no" ?>
<gpx xmlns="http://www.topografix.com/GPX/1/1" xmlns:xsi="http://www.w3.org/2001/XMLSchema-instance" xsi:schemaLocation="http://www.topografix.com/GPX/1/1 http://www.topografix.com/GPX/1/1/gpx.xsd" version="1.1" creator="VisuGPX - https://www.visugpx.com">
  <metadata>
    <name>Frespech</name>
  </metadata>
  <trk>
    <name><![CDATA[Frespech_1]]></name>
    <extensions>
      <line xmlns="http://www.topografix.com/GPX/gpx_style/0/2">
        <color>0400ff</color>
        <width>4</width>
      </line>
    </extensions>
    <trkseg>
      <trkpt lat="44.30961" lon="0.82462">
        <ele>213.3</ele>
        <time>2020-06-25T09:04:13.024Z</time>
      </trkpt>
      <trkpt lat="44.3096" lon="0.82462">
        <ele>213.3</ele>
        <time>2020-06-25T09:04:04.024Z</time>
      </trkpt>
      <trkpt lat="44.30957" lon="0.82458">
        <ele>213.3</ele>
        <time>2020-06-25T09:03:49.024Z</time>
      </trkpt>
      <trkpt lat="44.30944" lon="0.82467">
        <ele>213.8</ele>
        <time>2020-06-25T09:03:33.016Z</time>
      </trkpt>
      <trkpt lat="44.30938" lon="0.82474">
        <ele>214</ele>
        <time>2020-06-25T09:03:18.016Z</time>
      </trkpt>
      <trkpt lat="44.30926" lon="0.82488">
        <ele>214.4</ele>
        <time>2020-06-25T09:03:02.016Z</time>
      </trkpt>
      <trkpt lat="44.30907" lon="0.82488">
        <ele>214.7</ele>
        <time>2020-06-25T09:02:46.016Z</time>
      </trkpt>
      <trkpt lat="44.30891" lon="0.82479">
        <ele>215</ele>
        <time>2020-06-25T09:02:31.016Z</time>
      </trkpt>
      <trkpt lat="44.30873" lon="0.82467">
        <ele>214.3</ele>
        <time>2020-06-25T09:02:15.016Z</time>
      </trkpt>
      <trkpt lat="44.30858" lon="0.82454">
        <ele>214</ele>
        <time>2020-06-25T09:02:00.016Z</time>
      </trkpt>
      <trkpt lat="44.30841" lon="0.8244">
        <ele>213.9</ele>
        <time>2020-06-25T09:01:44.016Z</time>
      </trkpt>
      <trkpt lat="44.30826" lon="0.82426">
        <ele>213.2</ele>
        <time>2020-06-25T09:01:29.016Z</time>
      </trkpt>
      <trkpt lat="44.30808" lon="0.8241">
        <ele>212.8</ele>
        <time>2020-06-25T09:01:13.016Z</time>
      </trkpt>
      <trkpt lat="44.3079" lon="0.82393">
        <ele>212.1</ele>
        <time>2020-06-25T09:00:57.016Z</time>
      </trkpt>
      <trkpt lat="44.30775" lon="0.8238">
        <ele>212</ele>
        <time>2020-06-25T09:00:42.016Z</time>
      </trkpt>
      <trkpt lat="44.30756" lon="0.82363">
        <ele>212</ele>
        <time>2020-06-25T09:00:26.016Z</time>
      </trkpt>
      <trkpt lat="44.30741" lon="0.82347">
        <ele>211.9</ele>
        <time>2020-06-25T09:00:11.016Z</time>
      </trkpt>
      <trkpt lat="44.30724" lon="0.8233">
        <ele>211.9</ele>
        <time>2020-06-25T08:59:55.016Z</time>
      </trkpt>
      <trkpt lat="44.30708" lon="0.82318">
        <ele>211.5</ele>
        <time>2020-06-25T08:59:40.016Z</time>
      </trkpt>
      <trkpt lat="44.30688" lon="0.82307">
        <ele>212</ele>
        <time>2020-06-25T08:59:24.016Z</time>
      </trkpt>
      <trkpt lat="44.30671" lon="0.82296">
        <ele>212</ele>
        <time>2020-06-25T08:59:09.016Z</time>
      </trkpt>
      <trkpt lat="44.30654" lon="0.82289">
        <ele>212.3</ele>
        <time>2020-06-25T08:58:53.016Z</time>
      </trkpt>
      <trkpt lat="44.30648" lon="0.82287">
        <ele>212.4</ele>
        <time>2020-06-25T08:58:37.016Z</time>
      </trkpt>
      <trkpt lat="44.30646" lon="0.82286">
        <ele>212.5</ele>
        <time>2020-06-25T08:58:22.000Z</time>
      </trkpt>
      <trkpt lat="44.30633" lon="0.82283">
        <ele>213</ele>
        <time>2020-06-25T08:58:06.000Z</time>
      </trkpt>
      <trkpt lat="44.30627" lon="0.82272">
        <ele>213.4</ele>
        <time>2020-06-25T08:57:51.000Z</time>
      </trkpt>
      <trkpt lat="44.30638" lon="0.8225">
        <ele>213</ele>
        <time>2020-06-25T08:57:35.000Z</time>
      </trkpt>
      <trkpt lat="44.30648" lon="0.82226">
        <ele>211.8</ele>
        <time>2020-06-25T08:57:20.000Z</time>
      </trkpt>
      <trkpt lat="44.3066" lon="0.822">
        <ele>211.2</ele>
        <time>2020-06-25T08:57:04.000Z</time>
      </trkpt>
      <trkpt lat="44.3067" lon="0.82181">
        <ele>210.4</ele>
        <time>2020-06-25T08:56:49.000Z</time>
      </trkpt>
      <trkpt lat="44.30673" lon="0.82172">
        <ele>210</ele>
        <time>2020-06-25T08:56:33.113Z</time>
      </trkpt>
      <trkpt lat="44.30675" lon="0.82175">
        <ele>210</ele>
        <time>2020-06-25T08:56:17.093Z</time>
      </trkpt>
      <trkpt lat="44.3068" lon="0.82171">
        <ele>209.7</ele>
        <time>2020-06-25T08:56:02.093Z</time>
      </trkpt>
      <trkpt lat="44.3068" lon="0.82156">
        <ele>209.3</ele>
        <time>2020-06-25T08:55:46.093Z</time>
      </trkpt>
      <trkpt lat="44.30696" lon="0.82123">
        <ele>208.4</ele>
        <time>2020-06-25T08:55:31.093Z</time>
      </trkpt>
      <trkpt lat="44.30709" lon="0.82097">
        <ele>207.2</ele>
        <time>2020-06-25T08:55:15.093Z</time>
      </trkpt>
      <trkpt lat="44.30722" lon="0.82072">
        <ele>206.6</ele>
        <time>2020-06-25T08:55:00.093Z</time>
      </trkpt>
      <trkpt lat="44.30731" lon="0.82051">
        <ele>205.7</ele>
        <time>2020-06-25T08:54:44.089Z</time>
      </trkpt>
      <trkpt lat="44.30744" lon="0.82029">
        <ele>205.2</ele>
        <time>2020-06-25T08:54:28.089Z</time>
      </trkpt>
      <trkpt lat="44.30756" lon="0.82005">
        <ele>204.8</ele>
        <time>2020-06-25T08:54:13.089Z</time>
      </trkpt>
      <trkpt lat="44.3077" lon="0.81981">
        <ele>204.6</ele>
        <time>2020-06-25T08:53:57.089Z</time>
      </trkpt>
      <trkpt lat="44.30777" lon="0.81958">
        <ele>205</ele>
        <time>2020-06-25T08:53:42.089Z</time>
      </trkpt>
      <trkpt lat="44.30778" lon="0.8193">
        <ele>205.5</ele>
        <time>2020-06-25T08:53:26.089Z</time>
      </trkpt>
      <trkpt lat="44.30775" lon="0.81904">
        <ele>205.9</ele>
        <time>2020-06-25T08:53:11.089Z</time>
      </trkpt>
      <trkpt lat="44.3077" lon="0.81877">
        <ele>206.4</ele>
        <time>2020-06-25T08:52:55.089Z</time>
      </trkpt>
      <trkpt lat="44.30763" lon="0.81852">
        <ele>206.9</ele>
        <time>2020-06-25T08:52:40.089Z</time>
      </trkpt>
      <trkpt lat="44.30748" lon="0.81853">
        <ele>207.1</ele>
        <time>2020-06-25T08:52:24.089Z</time>
      </trkpt>
      <trkpt lat="44.30729" lon="0.8185">
        <ele>208</ele>
        <time>2020-06-25T08:52:08.089Z</time>
      </trkpt>
      <trkpt lat="44.30716" lon="0.81834">
        <ele>209</ele>
        <time>2020-06-25T08:51:53.089Z</time>
      </trkpt>
      <trkpt lat="44.30707" lon="0.81807">
        <ele>209.5</ele>
        <time>2020-06-25T08:51:37.089Z</time>
      </trkpt>
      <trkpt lat="44.30699" lon="0.81782">
        <ele>209.7</ele>
        <time>2020-06-25T08:51:22.089Z</time>
      </trkpt>
      <trkpt lat="44.30693" lon="0.81757">
        <ele>209.3</ele>
        <time>2020-06-25T08:51:06.089Z</time>
      </trkpt>
      <trkpt lat="44.30688" lon="0.81731">
        <ele>208.7</ele>
        <time>2020-06-25T08:50:51.089Z</time>
      </trkpt>
      <trkpt lat="44.30685" lon="0.81703">
        <ele>208.3</ele>
        <time>2020-06-25T08:50:35.089Z</time>
      </trkpt>
      <trkpt lat="44.30682" lon="0.81679">
        <ele>208.7</ele>
        <time>2020-06-25T08:50:20.089Z</time>
      </trkpt>
      <trkpt lat="44.30681" lon="0.81651">
        <ele>209.2</ele>
        <time>2020-06-25T08:50:04.089Z</time>
      </trkpt>
      <trkpt lat="44.30689" lon="0.81624">
        <ele>209.7</ele>
        <time>2020-06-25T08:49:48.089Z</time>
      </trkpt>
      <trkpt lat="44.30697" lon="0.816">
        <ele>210.6</ele>
        <time>2020-06-25T08:49:33.089Z</time>
      </trkpt>
      <trkpt lat="44.30697" lon="0.81573">
        <ele>212.2</ele>
        <time>2020-06-25T08:49:17.089Z</time>
      </trkpt>
      <trkpt lat="44.30692" lon="0.81549">
        <ele>213</ele>
        <time>2020-06-25T08:49:02.089Z</time>
      </trkpt>
      <trkpt lat="44.30685" lon="0.81525">
        <ele>213</ele>
        <time>2020-06-25T08:48:46.089Z</time>
      </trkpt>
      <trkpt lat="44.30681" lon="0.815">
        <ele>213</ele>
        <time>2020-06-25T08:48:31.089Z</time>
      </trkpt>
      <trkpt lat="44.30679" lon="0.81479">
        <ele>213</ele>
        <time>2020-06-25T08:48:15.089Z</time>
      </trkpt>
      <trkpt lat="44.30681" lon="0.81453">
        <ele>212.3</ele>
        <time>2020-06-25T08:47:59.089Z</time>
      </trkpt>
      <trkpt lat="44.30683" lon="0.81427">
        <ele>210.7</ele>
        <time>2020-06-25T08:47:44.089Z</time>
      </trkpt>
      <trkpt lat="44.30683" lon="0.81399">
        <ele>208.7</ele>
        <time>2020-06-25T08:47:28.089Z</time>
      </trkpt>
      <trkpt lat="44.3068" lon="0.81374">
        <ele>206.9</ele>
        <time>2020-06-25T08:47:13.089Z</time>
      </trkpt>
      <trkpt lat="44.30677" lon="0.81351">
        <ele>205.2</ele>
        <time>2020-06-25T08:46:57.089Z</time>
      </trkpt>
      <trkpt lat="44.30674" lon="0.81327">
        <ele>202.9</ele>
        <time>2020-06-25T08:46:42.089Z</time>
      </trkpt>
      <trkpt lat="44.30673" lon="0.81303">
        <ele>199.8</ele>
        <time>2020-06-25T08:46:26.089Z</time>
      </trkpt>
      <trkpt lat="44.3067" lon="0.81221">
        <ele>186.7</ele>
        <time>2020-06-25T08:45:55.089Z</time>
      </trkpt>
      <trkpt lat="44.30669" lon="0.81171">
        <ele>181.5</ele>
        <time>2020-06-25T08:45:39.089Z</time>
      </trkpt>
      <trkpt lat="44.30673" lon="0.81063">
        <ele>177</ele>
        <time>2020-06-25T08:45:24.089Z</time>
      </trkpt>
      <trkpt lat="44.30687" lon="0.80944">
        <ele>174.5</ele>
        <time>2020-06-25T08:41:30.089Z</time>
      </trkpt>
      <trkpt lat="44.30708" lon="0.80851">
        <ele>162.9</ele>
        <time>2020-06-25T08:25:10.040Z</time>
      </trkpt>
      <trkpt lat="44.30715" lon="0.80838">
        <ele>161.2</ele>
        <time>2020-06-25T08:24:55.040Z</time>
      </trkpt>
      <trkpt lat="44.30722" lon="0.8082">
        <ele>158.6</ele>
        <time>2020-06-25T08:24:39.040Z</time>
      </trkpt>
      <trkpt lat="44.30731" lon="0.80803">
        <ele>156</ele>
        <time>2020-06-25T08:24:24.040Z</time>
      </trkpt>
      <trkpt lat="44.30745" lon="0.8079">
        <ele>153.6</ele>
        <time>2020-06-25T08:24:08.040Z</time>
      </trkpt>
      <trkpt lat="44.30763" lon="0.80779">
        <ele>150.7</ele>
        <time>2020-06-25T08:23:52.040Z</time>
      </trkpt>
      <trkpt lat="44.30779" lon="0.8077">
        <ele>148.1</ele>
        <time>2020-06-25T08:23:37.040Z</time>
      </trkpt>
      <trkpt lat="44.30789" lon="0.80763">
        <ele>145.7</ele>
        <time>2020-06-25T08:23:21.040Z</time>
      </trkpt>
      <trkpt lat="44.30796" lon="0.80764">
        <ele>144.5</ele>
        <time>2020-06-25T08:23:06.040Z</time>
      </trkpt>
      <trkpt lat="44.3081" lon="0.80758">
        <ele>142</ele>
        <time>2020-06-25T08:22:50.040Z</time>
      </trkpt>
      <trkpt lat="44.30825" lon="0.80753">
        <ele>138.8</ele>
        <time>2020-06-25T08:22:35.040Z</time>
      </trkpt>
      <trkpt lat="44.30842" lon="0.80745">
        <ele>135.4</ele>
        <time>2020-06-25T08:22:19.040Z</time>
      </trkpt>
      <trkpt lat="44.30858" lon="0.80736">
        <ele>132.5</ele>
        <time>2020-06-25T08:22:03.040Z</time>
      </trkpt>
      <trkpt lat="44.30874" lon="0.80726">
        <ele>131</ele>
        <time>2020-06-25T08:21:48.040Z</time>
      </trkpt>
      <trkpt lat="44.30891" lon="0.80713">
        <ele>129.5</ele>
        <time>2020-06-25T08:21:32.040Z</time>
      </trkpt>
      <trkpt lat="44.30904" lon="0.80702">
        <ele>128</ele>
        <time>2020-06-25T08:21:17.040Z</time>
      </trkpt>
      <trkpt lat="44.30917" lon="0.80692">
        <ele>126.9</ele>
        <time>2020-06-25T08:21:01.040Z</time>
      </trkpt>
      <trkpt lat="44.30932" lon="0.80691">
        <ele>125.4</ele>
        <time>2020-06-25T08:20:46.040Z</time>
      </trkpt>
      <trkpt lat="44.30942" lon="0.80707">
        <ele>123.9</ele>
        <time>2020-06-25T08:20:30.040Z</time>
      </trkpt>
      <trkpt lat="44.30953" lon="0.80725">
        <ele>122</ele>
        <time>2020-06-25T08:20:15.040Z</time>
      </trkpt>
      <trkpt lat="44.30964" lon="0.80745">
        <ele>120.6</ele>
        <time>2020-06-25T08:19:59.040Z</time>
      </trkpt>
      <trkpt lat="44.30977" lon="0.80748">
        <ele>119.7</ele>
        <time>2020-06-25T08:19:43.040Z</time>
      </trkpt>
      <trkpt lat="44.30991" lon="0.80739">
        <ele>118.7</ele>
        <time>2020-06-25T08:19:28.040Z</time>
      </trkpt>
      <trkpt lat="44.31006" lon="0.80725">
        <ele>117.8</ele>
        <time>2020-06-25T08:19:12.040Z</time>
      </trkpt>
      <trkpt lat="44.31022" lon="0.80715">
        <ele>117</ele>
        <time>2020-06-25T08:18:57.040Z</time>
      </trkpt>
      <trkpt lat="44.31038" lon="0.80701">
        <ele>115.8</ele>
        <time>2020-06-25T08:18:41.040Z</time>
      </trkpt>
      <trkpt lat="44.31053" lon="0.80685">
        <ele>115.2</ele>
        <time>2020-06-25T08:18:26.040Z</time>
      </trkpt>
      <trkpt lat="44.31069" lon="0.80669">
        <ele>114.6</ele>
        <time>2020-06-25T08:18:10.040Z</time>
      </trkpt>
      <trkpt lat="44.31083" lon="0.80653">
        <ele>113.6</ele>
        <time>2020-06-25T08:17:55.040Z</time>
      </trkpt>
      <trkpt lat="44.31097" lon="0.80638">
        <ele>112.5</ele>
        <time>2020-06-25T08:17:39.040Z</time>
      </trkpt>
      <trkpt lat="44.31111" lon="0.80624">
        <ele>111.4</ele>
        <time>2020-06-25T08:17:23.040Z</time>
      </trkpt>
      <trkpt lat="44.31124" lon="0.80609">
        <ele>110.1</ele>
        <time>2020-06-25T08:17:08.040Z</time>
      </trkpt>
      <trkpt lat="44.31139" lon="0.80593">
        <ele>109</ele>
        <time>2020-06-25T08:16:52.040Z</time>
      </trkpt>
      <trkpt lat="44.31153" lon="0.80578">
        <ele>108.4</ele>
        <time>2020-06-25T08:16:37.040Z</time>
      </trkpt>
      <trkpt lat="44.31171" lon="0.80569">
        <ele>107.9</ele>
        <time>2020-06-25T08:16:21.040Z</time>
      </trkpt>
      <trkpt lat="44.31189" lon="0.80566">
        <ele>107.7</ele>
        <time>2020-06-25T08:16:06.040Z</time>
      </trkpt>
      <trkpt lat="44.31204" lon="0.80558">
        <ele>107.9</ele>
        <time>2020-06-25T08:15:50.040Z</time>
      </trkpt>
      <trkpt lat="44.31223" lon="0.8056">
        <ele>107.9</ele>
        <time>2020-06-25T08:15:34.040Z</time>
      </trkpt>
      <trkpt lat="44.31241" lon="0.80553">
        <ele>108.1</ele>
        <time>2020-06-25T08:15:19.040Z</time>
      </trkpt>
      <trkpt lat="44.31255" lon="0.80534">
        <ele>109.7</ele>
        <time>2020-06-25T08:15:03.040Z</time>
      </trkpt>
      <trkpt lat="44.3127" lon="0.80534">
        <ele>110.1</ele>
        <time>2020-06-25T08:14:48.040Z</time>
      </trkpt>
      <trkpt lat="44.31285" lon="0.80549">
        <ele>109.3</ele>
        <time>2020-06-25T08:14:32.040Z</time>
      </trkpt>
      <trkpt lat="44.31299" lon="0.80564">
        <ele>108.7</ele>
        <time>2020-06-25T08:14:17.040Z</time>
      </trkpt>
      <trkpt lat="44.31316" lon="0.80577">
        <ele>108.8</ele>
        <time>2020-06-25T08:14:01.040Z</time>
      </trkpt>
      <trkpt lat="44.3133" lon="0.80591">
        <ele>108.9</ele>
        <time>2020-06-25T08:13:46.040Z</time>
      </trkpt>
      <trkpt lat="44.31344" lon="0.80606">
        <ele>109.2</ele>
        <time>2020-06-25T08:13:30.040Z</time>
      </trkpt>
      <trkpt lat="44.31361" lon="0.8062">
        <ele>110</ele>
        <time>2020-06-25T08:13:14.040Z</time>
      </trkpt>
      <trkpt lat="44.31377" lon="0.80631">
        <ele>110.1</ele>
        <time>2020-06-25T08:12:59.040Z</time>
      </trkpt>
      <trkpt lat="44.31395" lon="0.80638">
        <ele>110.2</ele>
        <time>2020-06-25T08:12:43.040Z</time>
      </trkpt>
      <trkpt lat="44.31412" lon="0.80641">
        <ele>109.8</ele>
        <time>2020-06-25T08:12:28.040Z</time>
      </trkpt>
      <trkpt lat="44.3143" lon="0.80642">
        <ele>110.2</ele>
        <time>2020-06-25T08:12:12.040Z</time>
      </trkpt>
      <trkpt lat="44.31448" lon="0.80644">
        <ele>110.6</ele>
        <time>2020-06-25T08:11:57.040Z</time>
      </trkpt>
      <trkpt lat="44.31467" lon="0.80646">
        <ele>111.7</ele>
        <time>2020-06-25T08:11:41.040Z</time>
      </trkpt>
      <trkpt lat="44.31486" lon="0.80647">
        <ele>112.3</ele>
        <time>2020-06-25T08:11:25.040Z</time>
      </trkpt>
      <trkpt lat="44.31502" lon="0.8065">
        <ele>112.4</ele>
        <time>2020-06-25T08:11:10.040Z</time>
      </trkpt>
      <trkpt lat="44.31521" lon="0.80656">
        <ele>112.3</ele>
        <time>2020-06-25T08:10:54.040Z</time>
      </trkpt>
      <trkpt lat="44.31537" lon="0.80662">
        <ele>112.5</ele>
        <time>2020-06-25T08:10:39.040Z</time>
      </trkpt>
      <trkpt lat="44.31555" lon="0.80665">
        <ele>113.5</ele>
        <time>2020-06-25T08:10:23.040Z</time>
      </trkpt>
      <trkpt lat="44.3157" lon="0.80667">
        <ele>113.5</ele>
        <time>2020-06-25T08:10:08.040Z</time>
      </trkpt>
      <trkpt lat="44.31586" lon="0.80673">
        <ele>112.8</ele>
        <time>2020-06-25T08:09:52.040Z</time>
      </trkpt>
      <trkpt lat="44.316" lon="0.80678">
        <ele>111.3</ele>
        <time>2020-06-25T08:09:37.040Z</time>
      </trkpt>
      <trkpt lat="44.31615" lon="0.80685">
        <ele>109.5</ele>
        <time>2020-06-25T08:09:21.040Z</time>
      </trkpt>
      <trkpt lat="44.31632" lon="0.80691">
        <ele>107.7</ele>
        <time>2020-06-25T08:09:05.040Z</time>
      </trkpt>
      <trkpt lat="44.31647" lon="0.80698">
        <ele>106.5</ele>
        <time>2020-06-25T08:08:50.040Z</time>
      </trkpt>
      <trkpt lat="44.31665" lon="0.80705">
        <ele>105.3</ele>
        <time>2020-06-25T08:08:34.040Z</time>
      </trkpt>
      <trkpt lat="44.31682" lon="0.8071">
        <ele>104.9</ele>
        <time>2020-06-25T08:08:19.040Z</time>
      </trkpt>
      <trkpt lat="44.31696" lon="0.80716">
        <ele>104.5</ele>
        <time>2020-06-25T08:08:03.044Z</time>
      </trkpt>
      <trkpt lat="44.31697" lon="0.80731">
        <ele>103.8</ele>
        <time>2020-06-25T08:07:48.044Z</time>
      </trkpt>
      <trkpt lat="44.31685" lon="0.80753">
        <ele>103</ele>
        <time>2020-06-25T08:07:32.044Z</time>
      </trkpt>
      <trkpt lat="44.31677" lon="0.80775">
        <ele>103</ele>
        <time>2020-06-25T08:07:17.044Z</time>
      </trkpt>
      <trkpt lat="44.31671" lon="0.80797">
        <ele>103</ele>
        <time>2020-06-25T08:07:01.044Z</time>
      </trkpt>
      <trkpt lat="44.31667" lon="0.80818">
        <ele>103.4</ele>
        <time>2020-06-25T08:06:45.044Z</time>
      </trkpt>
      <trkpt lat="44.31659" lon="0.80842">
        <ele>103.6</ele>
        <time>2020-06-25T08:06:30.044Z</time>
      </trkpt>
      <trkpt lat="44.31652" lon="0.80867">
        <ele>104.4</ele>
        <time>2020-06-25T08:06:14.044Z</time>
      </trkpt>
      <trkpt lat="44.31641" lon="0.8089">
        <ele>106.1</ele>
        <time>2020-06-25T08:05:59.044Z</time>
      </trkpt>
      <trkpt lat="44.31628" lon="0.80911">
        <ele>109.2</ele>
        <time>2020-06-25T08:05:43.044Z</time>
      </trkpt>
      <trkpt lat="44.31615" lon="0.8093">
        <ele>111</ele>
        <time>2020-06-25T08:05:28.044Z</time>
      </trkpt>
      <trkpt lat="44.31603" lon="0.80956">
        <ele>114.2</ele>
        <time>2020-06-25T08:05:12.044Z</time>
      </trkpt>
      <trkpt lat="44.31595" lon="0.80981">
        <ele>117.9</ele>
        <time>2020-06-25T08:04:56.044Z</time>
      </trkpt>
      <trkpt lat="44.3159" lon="0.81005">
        <ele>120.1</ele>
        <time>2020-06-25T08:04:41.044Z</time>
      </trkpt>
      <trkpt lat="44.31584" lon="0.8103">
        <ele>122.1</ele>
        <time>2020-06-25T08:04:25.044Z</time>
      </trkpt>
      <trkpt lat="44.31577" lon="0.81053">
        <ele>123.6</ele>
        <time>2020-06-25T08:04:10.044Z</time>
      </trkpt>
      <trkpt lat="44.31569" lon="0.81079">
        <ele>125.8</ele>
        <time>2020-06-25T08:03:54.044Z</time>
      </trkpt>
      <trkpt lat="44.31563" lon="0.81104">
        <ele>127.4</ele>
        <time>2020-06-25T08:03:39.044Z</time>
      </trkpt>
      <trkpt lat="44.31555" lon="0.81131">
        <ele>129.5</ele>
        <time>2020-06-25T08:03:23.044Z</time>
      </trkpt>
      <trkpt lat="44.31547" lon="0.81154">
        <ele>132.2</ele>
        <time>2020-06-25T08:03:08.044Z</time>
      </trkpt>
      <trkpt lat="44.31537" lon="0.81177">
        <ele>135</ele>
        <time>2020-06-25T08:02:52.044Z</time>
      </trkpt>
      <trkpt lat="44.31527" lon="0.812">
        <ele>138.4</ele>
        <time>2020-06-25T08:02:36.044Z</time>
      </trkpt>
      <trkpt lat="44.31516" lon="0.81222">
        <ele>141.7</ele>
        <time>2020-06-25T08:02:21.044Z</time>
      </trkpt>
      <trkpt lat="44.31507" lon="0.81245">
        <ele>143.6</ele>
        <time>2020-06-25T08:02:05.044Z</time>
      </trkpt>
      <trkpt lat="44.31506" lon="0.81269">
        <ele>146</ele>
        <time>2020-06-25T08:01:50.044Z</time>
      </trkpt>
      <trkpt lat="44.31518" lon="0.81291">
        <ele>149.3</ele>
        <time>2020-06-25T08:01:34.044Z</time>
      </trkpt>
      <trkpt lat="44.31531" lon="0.81307">
        <ele>151.7</ele>
        <time>2020-06-25T08:01:19.044Z</time>
      </trkpt>
      <trkpt lat="44.31526" lon="0.81333">
        <ele>152.7</ele>
        <time>2020-06-25T08:01:03.044Z</time>
      </trkpt>
      <trkpt lat="44.31518" lon="0.81354">
        <ele>154.3</ele>
        <time>2020-06-25T08:00:48.044Z</time>
      </trkpt>
      <trkpt lat="44.31509" lon="0.81378">
        <ele>156.1</ele>
        <time>2020-06-25T08:00:32.044Z</time>
      </trkpt>
      <trkpt lat="44.31503" lon="0.814">
        <ele>158.4</ele>
        <time>2020-06-25T08:00:16.044Z</time>
      </trkpt>
      <trkpt lat="44.31495" lon="0.81418">
        <ele>159.4</ele>
        <time>2020-06-25T08:00:01.044Z</time>
      </trkpt>
      <trkpt lat="44.31477" lon="0.81431">
        <ele>159</ele>
        <time>2020-06-25T07:59:45.044Z</time>
      </trkpt>
      <trkpt lat="44.31463" lon="0.81448">
        <ele>160.8</ele>
        <time>2020-06-25T07:59:30.044Z</time>
      </trkpt>
      <trkpt lat="44.31453" lon="0.81468">
        <ele>164.8</ele>
        <time>2020-06-25T07:59:14.044Z</time>
      </trkpt>
      <trkpt lat="44.31443" lon="0.81484">
        <ele>168.5</ele>
        <time>2020-06-25T07:58:59.044Z</time>
      </trkpt>
      <trkpt lat="44.3143" lon="0.81503">
        <ele>171.7</ele>
        <time>2020-06-25T07:58:43.044Z</time>
      </trkpt>
      <trkpt lat="44.31415" lon="0.81518">
        <ele>173</ele>
        <time>2020-06-25T07:58:27.044Z</time>
      </trkpt>
      <trkpt lat="44.31403" lon="0.81535">
        <ele>174.7</ele>
        <time>2020-06-25T07:58:12.044Z</time>
      </trkpt>
      <trkpt lat="44.31391" lon="0.81554">
        <ele>176.4</ele>
        <time>2020-06-25T07:57:56.044Z</time>
      </trkpt>
      <trkpt lat="44.31382" lon="0.81571">
        <ele>178.6</ele>
        <time>2020-06-25T07:57:41.044Z</time>
      </trkpt>
      <trkpt lat="44.31374" lon="0.81586">
        <ele>180.5</ele>
        <time>2020-06-25T07:57:25.044Z</time>
      </trkpt>
      <trkpt lat="44.3139" lon="0.81582">
        <ele>184.1</ele>
        <time>2020-06-25T07:57:10.044Z</time>
      </trkpt>
      <trkpt lat="44.31401" lon="0.81568">
        <ele>184</ele>
        <time>2020-06-25T07:56:54.044Z</time>
      </trkpt>
      <trkpt lat="44.31411" lon="0.81554">
        <ele>183.5</ele>
        <time>2020-06-25T07:56:39.044Z</time>
      </trkpt>
      <trkpt lat="44.31426" lon="0.8154">
        <ele>182.8</ele>
        <time>2020-06-25T07:56:23.044Z</time>
      </trkpt>
      <trkpt lat="44.3144" lon="0.81526">
        <ele>182.2</ele>
        <time>2020-06-25T07:56:07.044Z</time>
      </trkpt>
      <trkpt lat="44.31457" lon="0.81517">
        <ele>181.5</ele>
        <time>2020-06-25T07:55:52.044Z</time>
      </trkpt>
      <trkpt lat="44.31477" lon="0.81512">
        <ele>181.9</ele>
        <time>2020-06-25T07:55:36.044Z</time>
      </trkpt>
      <trkpt lat="44.31495" lon="0.81518">
        <ele>184</ele>
        <time>2020-06-25T07:55:21.044Z</time>
      </trkpt>
      <trkpt lat="44.31515" lon="0.81525">
        <ele>187.4</ele>
        <time>2020-06-25T07:55:05.044Z</time>
      </trkpt>
      <trkpt lat="44.3153" lon="0.81525">
        <ele>188.7</ele>
        <time>2020-06-25T07:54:50.044Z</time>
      </trkpt>
      <trkpt lat="44.31548" lon="0.81525">
        <ele>192.2</ele>
        <time>2020-06-25T07:54:34.044Z</time>
      </trkpt>
      <trkpt lat="44.31556" lon="0.81526">
        <ele>193.8</ele>
        <time>2020-06-25T07:54:19.044Z</time>
      </trkpt>
      <trkpt lat="44.31571" lon="0.81521">
        <ele>195.8</ele>
        <time>2020-06-25T07:54:03.044Z</time>
      </trkpt>
      <trkpt lat="44.31578" lon="0.81529">
        <ele>198.1</ele>
        <time>2020-06-25T07:53:47.044Z</time>
      </trkpt>
      <trkpt lat="44.31571" lon="0.81549">
        <ele>199</ele>
        <time>2020-06-25T07:53:32.044Z</time>
      </trkpt>
      <trkpt lat="44.31575" lon="0.81563">
        <ele>200.7</ele>
        <time>2020-06-25T07:53:16.032Z</time>
      </trkpt>
      <trkpt lat="44.31574" lon="0.81559">
        <ele>200.2</ele>
        <time>2020-06-25T07:53:01.024Z</time>
      </trkpt>
      <trkpt lat="44.31566" lon="0.81569">
        <ele>200.7</ele>
        <time>2020-06-25T07:52:45.008Z</time>
      </trkpt>
      <trkpt lat="44.31559" lon="0.8159">
        <ele>202.4</ele>
        <time>2020-06-25T07:52:30.008Z</time>
      </trkpt>
      <trkpt lat="44.31561" lon="0.8161">
        <ele>203.1</ele>
        <time>2020-06-25T07:52:14.008Z</time>
      </trkpt>
      <trkpt lat="44.31562" lon="0.81631">
        <ele>203.9</ele>
        <time>2020-06-25T07:51:58.008Z</time>
      </trkpt>
      <trkpt lat="44.31569" lon="0.8164">
        <ele>204.5</ele>
        <time>2020-06-25T07:51:42.008Z</time>
      </trkpt>
      <trkpt lat="44.31575" lon="0.81667">
        <ele>206</ele>
        <time>2020-06-25T07:51:26.008Z</time>
      </trkpt>
      <trkpt lat="44.31581" lon="0.81693">
        <ele>207.8</ele>
        <time>2020-06-25T07:51:11.008Z</time>
      </trkpt>
      <trkpt lat="44.31589" lon="0.81721">
        <ele>208.8</ele>
        <time>2020-06-25T07:50:55.008Z</time>
      </trkpt>
      <trkpt lat="44.31594" lon="0.81748">
        <ele>209.5</ele>
        <time>2020-06-25T07:50:40.008Z</time>
      </trkpt>
      <trkpt lat="44.316" lon="0.81776">
        <ele>209.4</ele>
        <time>2020-06-25T07:50:24.008Z</time>
      </trkpt>
      <trkpt lat="44.31598" lon="0.81799">
        <ele>209.1</ele>
        <time>2020-06-25T07:50:09.008Z</time>
      </trkpt>
      <trkpt lat="44.31578" lon="0.8181">
        <ele>209.9</ele>
        <time>2020-06-25T07:49:53.008Z</time>
      </trkpt>
      <trkpt lat="44.31561" lon="0.81817">
        <ele>209.9</ele>
        <time>2020-06-25T07:49:37.004Z</time>
      </trkpt>
      <trkpt lat="44.3156" lon="0.81819">
        <ele>209.9</ele>
        <time>2020-06-25T07:49:22.117Z</time>
      </trkpt>
      <trkpt lat="44.3156" lon="0.8183">
        <ele>209.9</ele>
        <time>2020-06-25T07:49:06.117Z</time>
      </trkpt>
      <trkpt lat="44.31566" lon="0.81855">
        <ele>208.3</ele>
        <time>2020-06-25T07:48:51.117Z</time>
      </trkpt>
      <trkpt lat="44.31571" lon="0.81881">
        <ele>207.3</ele>
        <time>2020-06-25T07:48:35.117Z</time>
      </trkpt>
      <trkpt lat="44.31578" lon="0.81908">
        <ele>206.3</ele>
        <time>2020-06-25T07:48:20.117Z</time>
      </trkpt>
      <trkpt lat="44.31583" lon="0.81934">
        <ele>205.4</ele>
        <time>2020-06-25T07:48:04.117Z</time>
      </trkpt>
      <trkpt lat="44.31585" lon="0.81956">
        <ele>204.5</ele>
        <time>2020-06-25T07:47:49.117Z</time>
      </trkpt>
      <trkpt lat="44.31593" lon="0.81976">
        <ele>203.6</ele>
        <time>2020-06-25T07:47:33.117Z</time>
      </trkpt>
      <trkpt lat="44.31595" lon="0.81988">
        <ele>203.2</ele>
        <time>2020-06-25T07:47:17.109Z</time>
      </trkpt>
      <trkpt lat="44.31595" lon="0.82006">
        <ele>203</ele>
        <time>2020-06-25T07:47:02.109Z</time>
      </trkpt>
      <trkpt lat="44.31597" lon="0.82033">
        <ele>202.9</ele>
        <time>2020-06-25T07:46:46.109Z</time>
      </trkpt>
      <trkpt lat="44.31603" lon="0.82057">
        <ele>202.6</ele>
        <time>2020-06-25T07:46:31.109Z</time>
      </trkpt>
      <trkpt lat="44.31609" lon="0.82083">
        <ele>201.9</ele>
        <time>2020-06-25T07:46:15.109Z</time>
      </trkpt>
      <trkpt lat="44.31613" lon="0.82107">
        <ele>201.1</ele>
        <time>2020-06-25T07:46:00.109Z</time>
      </trkpt>
      <trkpt lat="44.31617" lon="0.82134">
        <ele>199.5</ele>
        <time>2020-06-25T07:45:44.109Z</time>
      </trkpt>
      <trkpt lat="44.31627" lon="0.82158">
        <ele>198.2</ele>
        <time>2020-06-25T07:45:28.109Z</time>
      </trkpt>
      <trkpt lat="44.31636" lon="0.82183">
        <ele>196.1</ele>
        <time>2020-06-25T07:45:13.109Z</time>
      </trkpt>
      <trkpt lat="44.31648" lon="0.82209">
        <ele>194.3</ele>
        <time>2020-06-25T07:44:57.109Z</time>
      </trkpt>
      <trkpt lat="44.31665" lon="0.8222">
        <ele>195</ele>
        <time>2020-06-25T07:44:42.109Z</time>
      </trkpt>
      <trkpt lat="44.31682" lon="0.8223">
        <ele>195.3</ele>
        <time>2020-06-25T07:44:26.109Z</time>
      </trkpt>
      <trkpt lat="44.317" lon="0.82237">
        <ele>196.4</ele>
        <time>2020-06-25T07:44:11.109Z</time>
      </trkpt>
      <trkpt lat="44.3171" lon="0.82248">
        <ele>196.8</ele>
        <time>2020-06-25T07:43:55.109Z</time>
      </trkpt>
      <trkpt lat="44.3172" lon="0.82257">
        <ele>197.5</ele>
        <time>2020-06-25T07:43:40.109Z</time>
      </trkpt>
      <trkpt lat="44.31738" lon="0.82277">
        <ele>197.6</ele>
        <time>2020-06-25T07:43:24.109Z</time>
      </trkpt>
      <trkpt lat="44.3175" lon="0.82299">
        <ele>197.2</ele>
        <time>2020-06-25T07:43:08.109Z</time>
      </trkpt>
      <trkpt lat="44.3176" lon="0.82318">
        <ele>196.3</ele>
        <time>2020-06-25T07:42:53.109Z</time>
      </trkpt>
      <trkpt lat="44.31773" lon="0.82327">
        <ele>196.1</ele>
        <time>2020-06-25T07:42:37.109Z</time>
      </trkpt>
      <trkpt lat="44.31783" lon="0.82344">
        <ele>195.2</ele>
        <time>2020-06-25T07:42:22.109Z</time>
      </trkpt>
      <trkpt lat="44.31785" lon="0.82366">
        <ele>194.4</ele>
        <time>2020-06-25T07:42:06.109Z</time>
      </trkpt>
      <trkpt lat="44.31787" lon="0.8239">
        <ele>193.6</ele>
        <time>2020-06-25T07:41:51.109Z</time>
      </trkpt>
      <trkpt lat="44.31793" lon="0.82413">
        <ele>192.2</ele>
        <time>2020-06-25T07:41:35.109Z</time>
      </trkpt>
      <trkpt lat="44.31799" lon="0.82431">
        <ele>191.3</ele>
        <time>2020-06-25T07:41:20.109Z</time>
      </trkpt>
      <trkpt lat="44.31806" lon="0.82447">
        <ele>190.7</ele>
        <time>2020-06-25T07:41:04.109Z</time>
      </trkpt>
      <trkpt lat="44.31811" lon="0.82467">
        <ele>188.1</ele>
        <time>2020-06-25T07:40:48.109Z</time>
      </trkpt>
      <trkpt lat="44.31814" lon="0.82484">
        <ele>186.1</ele>
        <time>2020-06-25T07:40:33.109Z</time>
      </trkpt>
      <trkpt lat="44.31823" lon="0.82499">
        <ele>184.7</ele>
        <time>2020-06-25T07:40:17.109Z</time>
      </trkpt>
      <trkpt lat="44.31832" lon="0.82505">
        <ele>184.4</ele>
        <time>2020-06-25T07:40:02.093Z</time>
      </trkpt>
      <trkpt lat="44.31828" lon="0.82521">
        <ele>182.5</ele>
        <time>2020-06-25T07:39:46.093Z</time>
      </trkpt>
      <trkpt lat="44.31819" lon="0.82536">
        <ele>179.4</ele>
        <time>2020-06-25T07:39:31.093Z</time>
      </trkpt>
      <trkpt lat="44.31824" lon="0.82553">
        <ele>176.4</ele>
        <time>2020-06-25T07:39:15.093Z</time>
      </trkpt>
      <trkpt lat="44.31829" lon="0.82569">
        <ele>172.8</ele>
        <time>2020-06-25T07:38:59.093Z</time>
      </trkpt>
      <trkpt lat="44.3184" lon="0.82579">
        <ele>170.2</ele>
        <time>2020-06-25T07:38:44.093Z</time>
      </trkpt>
      <trkpt lat="44.31852" lon="0.82585">
        <ele>168.5</ele>
        <time>2020-06-25T07:38:28.093Z</time>
      </trkpt>
      <trkpt lat="44.31863" lon="0.82589">
        <ele>167.6</ele>
        <time>2020-06-25T07:38:13.093Z</time>
      </trkpt>
      <trkpt lat="44.31873" lon="0.82593">
        <ele>165.9</ele>
        <time>2020-06-25T07:37:57.093Z</time>
      </trkpt>
      <trkpt lat="44.31877" lon="0.82609">
        <ele>162.8</ele>
        <time>2020-06-25T07:37:42.093Z</time>
      </trkpt>
      <trkpt lat="44.31885" lon="0.82627">
        <ele>159.2</ele>
        <time>2020-06-25T07:37:26.093Z</time>
      </trkpt>
      <trkpt lat="44.31894" lon="0.82643">
        <ele>156.3</ele>
        <time>2020-06-25T07:37:11.093Z</time>
      </trkpt>
      <trkpt lat="44.31906" lon="0.8266">
        <ele>153.8</ele>
        <time>2020-06-25T07:36:55.093Z</time>
      </trkpt>
      <trkpt lat="44.31916" lon="0.82675">
        <ele>152.1</ele>
        <time>2020-06-25T07:36:39.077Z</time>
      </trkpt>
      <trkpt lat="44.31927" lon="0.82675">
        <ele>150.4</ele>
        <time>2020-06-25T07:36:22.077Z</time>
      </trkpt>
      <trkpt lat="44.31946" lon="0.82663">
        <ele>149.1</ele>
        <time>2020-06-25T07:36:06.077Z</time>
      </trkpt>
      <trkpt lat="44.31956" lon="0.82646">
        <ele>148.3</ele>
        <time>2020-06-25T07:35:51.077Z</time>
      </trkpt>
      <trkpt lat="44.31966" lon="0.82619">
        <ele>147.9</ele>
        <time>2020-06-25T07:35:35.077Z</time>
      </trkpt>
      <trkpt lat="44.3197" lon="0.82593">
        <ele>146.8</ele>
        <time>2020-06-25T07:35:20.077Z</time>
      </trkpt>
      <trkpt lat="44.31971" lon="0.82568">
        <ele>146.9</ele>
        <time>2020-06-25T07:35:04.077Z</time>
      </trkpt>
      <trkpt lat="44.31971" lon="0.82546">
        <ele>147.3</ele>
        <time>2020-06-25T07:34:49.077Z</time>
      </trkpt>
      <trkpt lat="44.31972" lon="0.82523">
        <ele>147.1</ele>
        <time>2020-06-25T07:34:33.077Z</time>
      </trkpt>
      <trkpt lat="44.31974" lon="0.82492">
        <ele>146.3</ele>
        <time>2020-06-25T07:34:17.077Z</time>
      </trkpt>
      <trkpt lat="44.3197" lon="0.82468">
        <ele>146.7</ele>
        <time>2020-06-25T07:34:02.077Z</time>
      </trkpt>
      <trkpt lat="44.31971" lon="0.82447">
        <ele>146.4</ele>
        <time>2020-06-25T07:33:46.077Z</time>
      </trkpt>
      <trkpt lat="44.31977" lon="0.82424">
        <ele>144.9</ele>
        <time>2020-06-25T07:33:31.077Z</time>
      </trkpt>
      <trkpt lat="44.31987" lon="0.82408">
        <ele>142.8</ele>
        <time>2020-06-25T07:33:15.077Z</time>
      </trkpt>
      <trkpt lat="44.32" lon="0.82394">
        <ele>140.8</ele>
        <time>2020-06-25T07:33:00.077Z</time>
      </trkpt>
      <trkpt lat="44.32019" lon="0.82381">
        <ele>139.2</ele>
        <time>2020-06-25T07:32:44.077Z</time>
      </trkpt>
      <trkpt lat="44.32036" lon="0.8237">
        <ele>137.7</ele>
        <time>2020-06-25T07:32:28.077Z</time>
      </trkpt>
      <trkpt lat="44.32051" lon="0.82365">
        <ele>136.2</ele>
        <time>2020-06-25T07:32:13.077Z</time>
      </trkpt>
      <trkpt lat="44.32067" lon="0.82356">
        <ele>134.7</ele>
        <time>2020-06-25T07:31:57.077Z</time>
      </trkpt>
      <trkpt lat="44.32084" lon="0.82346">
        <ele>133</ele>
        <time>2020-06-25T07:31:42.077Z</time>
      </trkpt>
      <trkpt lat="44.32105" lon="0.82337">
        <ele>131.3</ele>
        <time>2020-06-25T07:31:26.077Z</time>
      </trkpt>
      <trkpt lat="44.32124" lon="0.82331">
        <ele>130</ele>
        <time>2020-06-25T07:31:11.077Z</time>
      </trkpt>
      <trkpt lat="44.3214" lon="0.82324">
        <ele>128.6</ele>
        <time>2020-06-25T07:30:55.077Z</time>
      </trkpt>
      <trkpt lat="44.32153" lon="0.82317">
        <ele>127.7</ele>
        <time>2020-06-25T07:30:40.077Z</time>
      </trkpt>
      <trkpt lat="44.32168" lon="0.82302">
        <ele>126.6</ele>
        <time>2020-06-25T07:30:24.077Z</time>
      </trkpt>
      <trkpt lat="44.3218" lon="0.82287">
        <ele>125</ele>
        <time>2020-06-25T07:30:08.077Z</time>
      </trkpt>
      <trkpt lat="44.32193" lon="0.82273">
        <ele>123.9</ele>
        <time>2020-06-25T07:29:53.077Z</time>
      </trkpt>
      <trkpt lat="44.32209" lon="0.82256">
        <ele>123.1</ele>
        <time>2020-06-25T07:29:37.077Z</time>
      </trkpt>
      <trkpt lat="44.32221" lon="0.82241">
        <ele>122.3</ele>
        <time>2020-06-25T07:29:22.077Z</time>
      </trkpt>
      <trkpt lat="44.32232" lon="0.82223">
        <ele>120.7</ele>
        <time>2020-06-25T07:29:06.077Z</time>
      </trkpt>
      <trkpt lat="44.32245" lon="0.82203">
        <ele>119.4</ele>
        <time>2020-06-25T07:28:51.077Z</time>
      </trkpt>
      <trkpt lat="44.32257" lon="0.82187">
        <ele>118</ele>
        <time>2020-06-25T07:28:35.077Z</time>
      </trkpt>
      <trkpt lat="44.3227" lon="0.8217">
        <ele>116.5</ele>
        <time>2020-06-25T07:28:20.077Z</time>
      </trkpt>
      <trkpt lat="44.32283" lon="0.82156">
        <ele>115.4</ele>
        <time>2020-06-25T07:28:04.077Z</time>
      </trkpt>
      <trkpt lat="44.32294" lon="0.82142">
        <ele>114</ele>
        <time>2020-06-25T07:27:48.077Z</time>
      </trkpt>
      <trkpt lat="44.32307" lon="0.82127">
        <ele>112.5</ele>
        <time>2020-06-25T07:27:33.077Z</time>
      </trkpt>
      <trkpt lat="44.32317" lon="0.82113">
        <ele>111.6</ele>
        <time>2020-06-25T07:27:17.077Z</time>
      </trkpt>
      <trkpt lat="44.32324" lon="0.82101">
        <ele>110.6</ele>
        <time>2020-06-25T07:27:02.077Z</time>
      </trkpt>
      <trkpt lat="44.32331" lon="0.82086">
        <ele>109.3</ele>
        <time>2020-06-25T07:26:46.077Z</time>
      </trkpt>
      <trkpt lat="44.32338" lon="0.82072">
        <ele>108.1</ele>
        <time>2020-06-25T07:26:31.077Z</time>
      </trkpt>
      <trkpt lat="44.3235" lon="0.82056">
        <ele>106.2</ele>
        <time>2020-06-25T07:26:15.077Z</time>
      </trkpt>
      <trkpt lat="44.32366" lon="0.82051">
        <ele>104.3</ele>
        <time>2020-06-25T07:25:59.077Z</time>
      </trkpt>
      <trkpt lat="44.32378" lon="0.82052">
        <ele>103</ele>
        <time>2020-06-25T07:25:44.073Z</time>
      </trkpt>
      <trkpt lat="44.32378" lon="0.82052">
        <ele>103.1</ele>
        <time>2020-06-25T07:25:28.073Z</time>
      </trkpt>
      <trkpt lat="44.3238" lon="0.82051">
        <ele>102.8</ele>
        <time>2020-06-25T07:25:13.066Z</time>
      </trkpt>
      <trkpt lat="44.32373" lon="0.82057">
        <ele>103.8</ele>
        <time>2020-06-25T07:24:57.059Z</time>
      </trkpt>
      <trkpt lat="44.32377" lon="0.82073">
        <ele>103.9</ele>
        <time>2020-06-25T07:24:42.059Z</time>
      </trkpt>
      <trkpt lat="44.32388" lon="0.8209">
        <ele>103.6</ele>
        <time>2020-06-25T07:24:26.059Z</time>
      </trkpt>
      <trkpt lat="44.32401" lon="0.82103">
        <ele>102.4</ele>
        <time>2020-06-25T07:24:11.059Z</time>
      </trkpt>
      <trkpt lat="44.32416" lon="0.82119">
        <ele>100.7</ele>
        <time>2020-06-25T07:23:55.059Z</time>
      </trkpt>
      <trkpt lat="44.32428" lon="0.82139">
        <ele>99.9</ele>
        <time>2020-06-25T07:23:39.059Z</time>
      </trkpt>
      <trkpt lat="44.32438" lon="0.82158">
        <ele>98.1</ele>
        <time>2020-06-25T07:23:24.059Z</time>
      </trkpt>
      <trkpt lat="44.32446" lon="0.82181">
        <ele>96.3</ele>
        <time>2020-06-25T07:23:08.059Z</time>
      </trkpt>
      <trkpt lat="44.32445" lon="0.82205">
        <ele>96</ele>
        <time>2020-06-25T07:22:53.059Z</time>
      </trkpt>
      <trkpt lat="44.3244" lon="0.82234">
        <ele>96.7</ele>
        <time>2020-06-25T07:22:37.059Z</time>
      </trkpt>
      <trkpt lat="44.32436" lon="0.82259">
        <ele>97.2</ele>
        <time>2020-06-25T07:22:22.059Z</time>
      </trkpt>
      <trkpt lat="44.32433" lon="0.82288">
        <ele>97.2</ele>
        <time>2020-06-25T07:22:06.059Z</time>
      </trkpt>
      <trkpt lat="44.3243" lon="0.82311">
        <ele>97.5</ele>
        <time>2020-06-25T07:21:51.059Z</time>
      </trkpt>
      <trkpt lat="44.32422" lon="0.82339">
        <ele>97.4</ele>
        <time>2020-06-25T07:21:35.059Z</time>
      </trkpt>
      <trkpt lat="44.32419" lon="0.82365">
        <ele>96.7</ele>
        <time>2020-06-25T07:21:19.059Z</time>
      </trkpt>
      <trkpt lat="44.32415" lon="0.82389">
        <ele>96.3</ele>
        <time>2020-06-25T07:21:04.059Z</time>
      </trkpt>
      <trkpt lat="44.32416" lon="0.82416">
        <ele>96.1</ele>
        <time>2020-06-25T07:20:48.059Z</time>
      </trkpt>
      <trkpt lat="44.32416" lon="0.82442">
        <ele>95.1</ele>
        <time>2020-06-25T07:20:33.059Z</time>
      </trkpt>
      <trkpt lat="44.32415" lon="0.82468">
        <ele>94.4</ele>
        <time>2020-06-25T07:20:17.059Z</time>
      </trkpt>
      <trkpt lat="44.32413" lon="0.82494">
        <ele>94.3</ele>
        <time>2020-06-25T07:20:02.059Z</time>
      </trkpt>
      <trkpt lat="44.32406" lon="0.82521">
        <ele>94</ele>
        <time>2020-06-25T07:19:46.059Z</time>
      </trkpt>
      <trkpt lat="44.32401" lon="0.82546">
        <ele>94.1</ele>
        <time>2020-06-25T07:19:30.059Z</time>
      </trkpt>
      <trkpt lat="44.32395" lon="0.82568">
        <ele>94.2</ele>
        <time>2020-06-25T07:19:15.059Z</time>
      </trkpt>
      <trkpt lat="44.32384" lon="0.8259">
        <ele>94.2</ele>
        <time>2020-06-25T07:18:59.059Z</time>
      </trkpt>
      <trkpt lat="44.32373" lon="0.82611">
        <ele>94.7</ele>
        <time>2020-06-25T07:18:44.059Z</time>
      </trkpt>
      <trkpt lat="44.32362" lon="0.82633">
        <ele>94.4</ele>
        <time>2020-06-25T07:18:28.059Z</time>
      </trkpt>
      <trkpt lat="44.32351" lon="0.82654">
        <ele>95</ele>
        <time>2020-06-25T07:18:13.059Z</time>
      </trkpt>
      <trkpt lat="44.32339" lon="0.82676">
        <ele>95.4</ele>
        <time>2020-06-25T07:17:57.059Z</time>
      </trkpt>
      <trkpt lat="44.32327" lon="0.82695">
        <ele>94.7</ele>
        <time>2020-06-25T07:17:42.059Z</time>
      </trkpt>
      <trkpt lat="44.32312" lon="0.82713">
        <ele>95.2</ele>
        <time>2020-06-25T07:17:26.059Z</time>
      </trkpt>
      <trkpt lat="44.32297" lon="0.82729">
        <ele>95.2</ele>
        <time>2020-06-25T07:17:10.059Z</time>
      </trkpt>
      <trkpt lat="44.32282" lon="0.82745">
        <ele>95.8</ele>
        <time>2020-06-25T07:16:55.059Z</time>
      </trkpt>
      <trkpt lat="44.32268" lon="0.82765">
        <ele>96.5</ele>
        <time>2020-06-25T07:16:39.059Z</time>
      </trkpt>
      <trkpt lat="44.32259" lon="0.82787">
        <ele>96.8</ele>
        <time>2020-06-25T07:16:24.059Z</time>
      </trkpt>
      <trkpt lat="44.32252" lon="0.82812">
        <ele>96.7</ele>
        <time>2020-06-25T07:16:08.059Z</time>
      </trkpt>
      <trkpt lat="44.32245" lon="0.82834">
        <ele>96.4</ele>
        <time>2020-06-25T07:15:53.059Z</time>
      </trkpt>
      <trkpt lat="44.32237" lon="0.82858">
        <ele>96.1</ele>
        <time>2020-06-25T07:15:37.059Z</time>
      </trkpt>
      <trkpt lat="44.32229" lon="0.82882">
        <ele>95.7</ele>
        <time>2020-06-25T07:15:21.059Z</time>
      </trkpt>
      <trkpt lat="44.32221" lon="0.82903">
        <ele>96.2</ele>
        <time>2020-06-25T07:15:06.059Z</time>
      </trkpt>
      <trkpt lat="44.32212" lon="0.82926">
        <ele>97</ele>
        <time>2020-06-25T07:14:50.059Z</time>
      </trkpt>
      <trkpt lat="44.32203" lon="0.82947">
        <ele>97.3</ele>
        <time>2020-06-25T07:14:35.059Z</time>
      </trkpt>
      <trkpt lat="44.32193" lon="0.82968">
        <ele>97.3</ele>
        <time>2020-06-25T07:14:19.059Z</time>
      </trkpt>
      <trkpt lat="44.32183" lon="0.82986">
        <ele>98.1</ele>
        <time>2020-06-25T07:14:04.059Z</time>
      </trkpt>
      <trkpt lat="44.32173" lon="0.83007">
        <ele>98.5</ele>
        <time>2020-06-25T07:13:48.059Z</time>
      </trkpt>
      <trkpt lat="44.32171" lon="0.83032">
        <ele>98.4</ele>
        <time>2020-06-25T07:13:33.059Z</time>
      </trkpt>
      <trkpt lat="44.32169" lon="0.83059">
        <ele>98.5</ele>
        <time>2020-06-25T07:13:17.059Z</time>
      </trkpt>
      <trkpt lat="44.32167" lon="0.83086">
        <ele>98</ele>
        <time>2020-06-25T07:13:01.059Z</time>
      </trkpt>
      <trkpt lat="44.32166" lon="0.83111">
        <ele>98.1</ele>
        <time>2020-06-25T07:12:46.059Z</time>
      </trkpt>
      <trkpt lat="44.32165" lon="0.83139">
        <ele>97.2</ele>
        <time>2020-06-25T07:12:30.059Z</time>
      </trkpt>
      <trkpt lat="44.32163" lon="0.83165">
        <ele>97.5</ele>
        <time>2020-06-25T07:12:15.059Z</time>
      </trkpt>
      <trkpt lat="44.32164" lon="0.83194">
        <ele>97.4</ele>
        <time>2020-06-25T07:11:59.059Z</time>
      </trkpt>
      <trkpt lat="44.32164" lon="0.83218">
        <ele>97.4</ele>
        <time>2020-06-25T07:11:44.059Z</time>
      </trkpt>
      <trkpt lat="44.32161" lon="0.83246">
        <ele>97.2</ele>
        <time>2020-06-25T07:11:28.059Z</time>
      </trkpt>
      <trkpt lat="44.32158" lon="0.83271">
        <ele>97.4</ele>
        <time>2020-06-25T07:11:13.059Z</time>
      </trkpt>
      <trkpt lat="44.32154" lon="0.83299">
        <ele>97.5</ele>
        <time>2020-06-25T07:10:57.059Z</time>
      </trkpt>
      <trkpt lat="44.32153" lon="0.83324">
        <ele>97.5</ele>
        <time>2020-06-25T07:10:41.059Z</time>
      </trkpt>
      <trkpt lat="44.32153" lon="0.8335">
        <ele>97.8</ele>
        <time>2020-06-25T07:10:26.059Z</time>
      </trkpt>
      <trkpt lat="44.32151" lon="0.83374">
        <ele>98.2</ele>
        <time>2020-06-25T07:10:10.059Z</time>
      </trkpt>
      <trkpt lat="44.32147" lon="0.83399">
        <ele>98.6</ele>
        <time>2020-06-25T07:09:55.059Z</time>
      </trkpt>
      <trkpt lat="44.32138" lon="0.83422">
        <ele>99.2</ele>
        <time>2020-06-25T07:09:39.059Z</time>
      </trkpt>
      <trkpt lat="44.32129" lon="0.83445">
        <ele>100.8</ele>
        <time>2020-06-25T07:09:24.059Z</time>
      </trkpt>
      <trkpt lat="44.32116" lon="0.83468">
        <ele>101.6</ele>
        <time>2020-06-25T07:09:08.059Z</time>
      </trkpt>
      <trkpt lat="44.32101" lon="0.83486">
        <ele>102.8</ele>
        <time>2020-06-25T07:08:52.059Z</time>
      </trkpt>
      <trkpt lat="44.32089" lon="0.83501">
        <ele>102.5</ele>
        <time>2020-06-25T07:08:37.059Z</time>
      </trkpt>
      <trkpt lat="44.32078" lon="0.8352">
        <ele>102</ele>
        <time>2020-06-25T07:08:21.059Z</time>
      </trkpt>
      <trkpt lat="44.32085" lon="0.83543">
        <ele>100.4</ele>
        <time>2020-06-25T07:08:06.059Z</time>
      </trkpt>
      <trkpt lat="44.32089" lon="0.83572">
        <ele>99.2</ele>
        <time>2020-06-25T07:07:50.059Z</time>
      </trkpt>
      <trkpt lat="44.3209" lon="0.836">
        <ele>98.3</ele>
        <time>2020-06-25T07:07:35.059Z</time>
      </trkpt>
      <trkpt lat="44.32093" lon="0.83627">
        <ele>98</ele>
        <time>2020-06-25T07:07:19.059Z</time>
      </trkpt>
      <trkpt lat="44.32093" lon="0.83652">
        <ele>98</ele>
        <time>2020-06-25T07:07:04.059Z</time>
      </trkpt>
      <trkpt lat="44.32085" lon="0.83681">
        <ele>98</ele>
        <time>2020-06-25T07:06:48.059Z</time>
      </trkpt>
      <trkpt lat="44.32076" lon="0.8371">
        <ele>98.3</ele>
        <time>2020-06-25T07:06:32.059Z</time>
      </trkpt>
      <trkpt lat="44.32068" lon="0.83735">
        <ele>98.6</ele>
        <time>2020-06-25T07:06:17.059Z</time>
      </trkpt>
      <trkpt lat="44.32058" lon="0.83762">
        <ele>98.9</ele>
        <time>2020-06-25T07:06:01.059Z</time>
      </trkpt>
      <trkpt lat="44.32048" lon="0.83787">
        <ele>98.9</ele>
        <time>2020-06-25T07:05:46.059Z</time>
      </trkpt>
      <trkpt lat="44.32039" lon="0.83815">
        <ele>98.6</ele>
        <time>2020-06-25T07:05:30.059Z</time>
      </trkpt>
      <trkpt lat="44.3203" lon="0.83841">
        <ele>98.9</ele>
        <time>2020-06-25T07:05:15.059Z</time>
      </trkpt>
      <trkpt lat="44.32023" lon="0.83869">
        <ele>99.2</ele>
        <time>2020-06-25T07:04:59.059Z</time>
      </trkpt>
      <trkpt lat="44.32019" lon="0.83893">
        <ele>99.2</ele>
        <time>2020-06-25T07:04:44.059Z</time>
      </trkpt>
      <trkpt lat="44.32019" lon="0.83921">
        <ele>98.6</ele>
        <time>2020-06-25T07:04:28.059Z</time>
      </trkpt>
      <trkpt lat="44.32009" lon="0.83936">
        <ele>99.3</ele>
        <time>2020-06-25T07:04:12.059Z</time>
      </trkpt>
      <trkpt lat="44.3199" lon="0.83935">
        <ele>100.7</ele>
        <time>2020-06-25T07:03:57.059Z</time>
      </trkpt>
      <trkpt lat="44.31971" lon="0.83932">
        <ele>102.2</ele>
        <time>2020-06-25T07:03:41.059Z</time>
      </trkpt>
      <trkpt lat="44.31954" lon="0.8393">
        <ele>104.3</ele>
        <time>2020-06-25T07:03:26.059Z</time>
      </trkpt>
      <trkpt lat="44.31935" lon="0.83929">
        <ele>107.4</ele>
        <time>2020-06-25T07:03:10.059Z</time>
      </trkpt>
      <trkpt lat="44.31918" lon="0.83928">
        <ele>110.6</ele>
        <time>2020-06-25T07:02:55.059Z</time>
      </trkpt>
      <trkpt lat="44.319" lon="0.83928">
        <ele>113.5</ele>
        <time>2020-06-25T07:02:39.059Z</time>
      </trkpt>
      <trkpt lat="44.31886" lon="0.83928">
        <ele>116</ele>
        <time>2020-06-25T07:02:23.059Z</time>
      </trkpt>
      <trkpt lat="44.3187" lon="0.83928">
        <ele>118.4</ele>
        <time>2020-06-25T07:02:08.059Z</time>
      </trkpt>
      <trkpt lat="44.31861" lon="0.83927">
        <ele>119.8</ele>
        <time>2020-06-25T07:01:52.059Z</time>
      </trkpt>
      <trkpt lat="44.31851" lon="0.83925">
        <ele>121.8</ele>
        <time>2020-06-25T07:01:37.059Z</time>
      </trkpt>
      <trkpt lat="44.31834" lon="0.83924">
        <ele>125.3</ele>
        <time>2020-06-25T07:01:21.059Z</time>
      </trkpt>
      <trkpt lat="44.3182" lon="0.83924">
        <ele>129.1</ele>
        <time>2020-06-25T07:01:06.059Z</time>
      </trkpt>
      <trkpt lat="44.31804" lon="0.83926">
        <ele>133</ele>
        <time>2020-06-25T07:00:50.059Z</time>
      </trkpt>
      <trkpt lat="44.31789" lon="0.83924">
        <ele>136</ele>
        <time>2020-06-25T07:00:35.059Z</time>
      </trkpt>
      <trkpt lat="44.31768" lon="0.83919">
        <ele>139.9</ele>
        <time>2020-06-25T07:00:19.059Z</time>
      </trkpt>
      <trkpt lat="44.31749" lon="0.83917">
        <ele>143.2</ele>
        <time>2020-06-25T07:00:03.059Z</time>
      </trkpt>
      <trkpt lat="44.3173" lon="0.83918">
        <ele>145.9</ele>
        <time>2020-06-25T06:59:48.059Z</time>
      </trkpt>
      <trkpt lat="44.31711" lon="0.83922">
        <ele>149.6</ele>
        <time>2020-06-25T06:59:32.059Z</time>
      </trkpt>
      <trkpt lat="44.31693" lon="0.83925">
        <ele>153.3</ele>
        <time>2020-06-25T06:59:17.059Z</time>
      </trkpt>
      <trkpt lat="44.31672" lon="0.83935">
        <ele>159.4</ele>
        <time>2020-06-25T06:59:01.059Z</time>
      </trkpt>
      <trkpt lat="44.31654" lon="0.8394">
        <ele>164.1</ele>
        <time>2020-06-25T06:58:46.059Z</time>
      </trkpt>
      <trkpt lat="44.31633" lon="0.83932">
        <ele>168.2</ele>
        <time>2020-06-25T06:58:30.059Z</time>
      </trkpt>
      <trkpt lat="44.31611" lon="0.83923">
        <ele>173.6</ele>
        <time>2020-06-25T06:58:15.059Z</time>
      </trkpt>
      <trkpt lat="44.31591" lon="0.8392">
        <ele>180.1</ele>
        <time>2020-06-25T06:57:59.059Z</time>
      </trkpt>
      <trkpt lat="44.3157" lon="0.83913">
        <ele>186.1</ele>
        <time>2020-06-25T06:57:43.059Z</time>
      </trkpt>
      <trkpt lat="44.31552" lon="0.83911">
        <ele>191.7</ele>
        <time>2020-06-25T06:57:28.059Z</time>
      </trkpt>
      <trkpt lat="44.31532" lon="0.83909">
        <ele>195.5</ele>
        <time>2020-06-25T06:57:12.059Z</time>
      </trkpt>
      <trkpt lat="44.31514" lon="0.83905">
        <ele>197.6</ele>
        <time>2020-06-25T06:56:57.059Z</time>
      </trkpt>
      <trkpt lat="44.31497" lon="0.83909">
        <ele>200</ele>
        <time>2020-06-25T06:56:41.059Z</time>
      </trkpt>
      <trkpt lat="44.3148" lon="0.83914">
        <ele>201.3</ele>
        <time>2020-06-25T06:56:26.059Z</time>
      </trkpt>
      <trkpt lat="44.3146" lon="0.83921">
        <ele>202.3</ele>
        <time>2020-06-25T06:56:10.059Z</time>
      </trkpt>
      <trkpt lat="44.31442" lon="0.83929">
        <ele>202.9</ele>
        <time>2020-06-25T06:55:54.059Z</time>
      </trkpt>
      <trkpt lat="44.31425" lon="0.83938">
        <ele>203.3</ele>
        <time>2020-06-25T06:55:39.059Z</time>
      </trkpt>
      <trkpt lat="44.31403" lon="0.83943">
        <ele>202.9</ele>
        <time>2020-06-25T06:55:23.059Z</time>
      </trkpt>
      <trkpt lat="44.31386" lon="0.83946">
        <ele>202</ele>
        <time>2020-06-25T06:55:08.059Z</time>
      </trkpt>
      <trkpt lat="44.31367" lon="0.83949">
        <ele>201.5</ele>
        <time>2020-06-25T06:54:52.059Z</time>
      </trkpt>
      <trkpt lat="44.31349" lon="0.83952">
        <ele>201.5</ele>
        <time>2020-06-25T06:54:37.059Z</time>
      </trkpt>
      <trkpt lat="44.31334" lon="0.83957">
        <ele>201.9</ele>
        <time>2020-06-25T06:54:21.059Z</time>
      </trkpt>
      <trkpt lat="44.31317" lon="0.83953">
        <ele>202.6</ele>
        <time>2020-06-25T06:54:06.059Z</time>
      </trkpt>
      <trkpt lat="44.313" lon="0.83954">
        <ele>203.9</ele>
        <time>2020-06-25T06:53:50.059Z</time>
      </trkpt>
      <trkpt lat="44.31294" lon="0.83935">
        <ele>204.2</ele>
        <time>2020-06-25T06:53:34.059Z</time>
      </trkpt>
      <trkpt lat="44.313" lon="0.83914">
        <ele>203.7</ele>
        <time>2020-06-25T06:53:19.059Z</time>
      </trkpt>
      <trkpt lat="44.3131" lon="0.83892">
        <ele>202.4</ele>
        <time>2020-06-25T06:53:03.059Z</time>
      </trkpt>
      <trkpt lat="44.31319" lon="0.83868">
        <ele>200.3</ele>
        <time>2020-06-25T06:52:48.059Z</time>
      </trkpt>
      <trkpt lat="44.31323" lon="0.83846">
        <ele>198.4</ele>
        <time>2020-06-25T06:52:32.059Z</time>
      </trkpt>
      <trkpt lat="44.31326" lon="0.83825">
        <ele>196.1</ele>
        <time>2020-06-25T06:52:17.059Z</time>
      </trkpt>
      <trkpt lat="44.31327" lon="0.83799">
        <ele>193.3</ele>
        <time>2020-06-25T06:52:01.059Z</time>
      </trkpt>
      <trkpt lat="44.31321" lon="0.83777">
        <ele>192.3</ele>
        <time>2020-06-25T06:51:46.059Z</time>
      </trkpt>
      <trkpt lat="44.31314" lon="0.83755">
        <ele>191.9</ele>
        <time>2020-06-25T06:51:30.059Z</time>
      </trkpt>
      <trkpt lat="44.31307" lon="0.83732">
        <ele>191</ele>
        <time>2020-06-25T06:51:14.059Z</time>
      </trkpt>
      <trkpt lat="44.31305" lon="0.83705">
        <ele>187.8</ele>
        <time>2020-06-25T06:50:59.059Z</time>
      </trkpt>
      <trkpt lat="44.31303" lon="0.83685">
        <ele>185.3</ele>
        <time>2020-06-25T06:50:43.059Z</time>
      </trkpt>
      <trkpt lat="44.31296" lon="0.83659">
        <ele>182.8</ele>
        <time>2020-06-25T06:50:28.059Z</time>
      </trkpt>
      <trkpt lat="44.31281" lon="0.8364">
        <ele>181.7</ele>
        <time>2020-06-25T06:50:12.059Z</time>
      </trkpt>
      <trkpt lat="44.31266" lon="0.83628">
        <ele>181.1</ele>
        <time>2020-06-25T06:49:57.059Z</time>
      </trkpt>
      <trkpt lat="44.31249" lon="0.83614">
        <ele>179.8</ele>
        <time>2020-06-25T06:49:41.059Z</time>
      </trkpt>
      <trkpt lat="44.31232" lon="0.83601">
        <ele>177.6</ele>
        <time>2020-06-25T06:49:25.059Z</time>
      </trkpt>
      <trkpt lat="44.31214" lon="0.83592">
        <ele>176.6</ele>
        <time>2020-06-25T06:49:10.059Z</time>
      </trkpt>
      <trkpt lat="44.31195" lon="0.83586">
        <ele>176.6</ele>
        <time>2020-06-25T06:48:54.059Z</time>
      </trkpt>
      <trkpt lat="44.31176" lon="0.83586">
        <ele>176</ele>
        <time>2020-06-25T06:48:39.059Z</time>
      </trkpt>
      <trkpt lat="44.31158" lon="0.83586">
        <ele>174.4</ele>
        <time>2020-06-25T06:48:23.059Z</time>
      </trkpt>
      <trkpt lat="44.31141" lon="0.83588">
        <ele>172.5</ele>
        <time>2020-06-25T06:48:08.059Z</time>
      </trkpt>
      <trkpt lat="44.31123" lon="0.8359">
        <ele>169.2</ele>
        <time>2020-06-25T06:47:52.059Z</time>
      </trkpt>
      <trkpt lat="44.31107" lon="0.83597">
        <ele>167.4</ele>
        <time>2020-06-25T06:47:37.059Z</time>
      </trkpt>
      <trkpt lat="44.31091" lon="0.8361">
        <ele>165.4</ele>
        <time>2020-06-25T06:47:21.059Z</time>
      </trkpt>
      <trkpt lat="44.31075" lon="0.83626">
        <ele>164.1</ele>
        <time>2020-06-25T06:47:05.059Z</time>
      </trkpt>
      <trkpt lat="44.31062" lon="0.8364">
        <ele>162.6</ele>
        <time>2020-06-25T06:46:50.059Z</time>
      </trkpt>
      <trkpt lat="44.31054" lon="0.83657">
        <ele>163.6</ele>
        <time>2020-06-25T06:46:34.059Z</time>
      </trkpt>
      <trkpt lat="44.31046" lon="0.83664">
        <ele>162.4</ele>
        <time>2020-06-25T06:46:19.059Z</time>
      </trkpt>
      <trkpt lat="44.31053" lon="0.83642">
        <ele>160.1</ele>
        <time>2020-06-25T06:46:03.059Z</time>
      </trkpt>
      <trkpt lat="44.31064" lon="0.83622">
        <ele>159.2</ele>
        <time>2020-06-25T06:45:48.059Z</time>
      </trkpt>
      <trkpt lat="44.31073" lon="0.83601">
        <ele>157.6</ele>
        <time>2020-06-25T06:45:32.059Z</time>
      </trkpt>
      <trkpt lat="44.31081" lon="0.8358">
        <ele>155.7</ele>
        <time>2020-06-25T06:45:17.059Z</time>
      </trkpt>
      <trkpt lat="44.31089" lon="0.83556">
        <ele>152.5</ele>
        <time>2020-06-25T06:45:01.059Z</time>
      </trkpt>
      <trkpt lat="44.31101" lon="0.83536">
        <ele>151.3</ele>
        <time>2020-06-25T06:44:45.059Z</time>
      </trkpt>
      <trkpt lat="44.31111" lon="0.83516">
        <ele>149.8</ele>
        <time>2020-06-25T06:44:30.059Z</time>
      </trkpt>
      <trkpt lat="44.31122" lon="0.83496">
        <ele>148.3</ele>
        <time>2020-06-25T06:44:14.059Z</time>
      </trkpt>
      <trkpt lat="44.31133" lon="0.83475">
        <ele>146.7</ele>
        <time>2020-06-25T06:43:59.059Z</time>
      </trkpt>
      <trkpt lat="44.31141" lon="0.83461">
        <ele>145.3</ele>
        <time>2020-06-25T06:43:43.055Z</time>
      </trkpt>
      <trkpt lat="44.31152" lon="0.83445">
        <ele>143.6</ele>
        <time>2020-06-25T06:43:28.055Z</time>
      </trkpt>
      <trkpt lat="44.31142" lon="0.83427">
        <ele>140.4</ele>
        <time>2020-06-25T06:43:12.055Z</time>
      </trkpt>
      <trkpt lat="44.31138" lon="0.83403">
        <ele>137.4</ele>
        <time>2020-06-25T06:42:56.055Z</time>
      </trkpt>
      <trkpt lat="44.31135" lon="0.8338">
        <ele>134.9</ele>
        <time>2020-06-25T06:42:41.055Z</time>
      </trkpt>
      <trkpt lat="44.31133" lon="0.83355">
        <ele>132.6</ele>
        <time>2020-06-25T06:42:25.055Z</time>
      </trkpt>
      <trkpt lat="44.31134" lon="0.83331">
        <ele>129.9</ele>
        <time>2020-06-25T06:42:10.055Z</time>
      </trkpt>
      <trkpt lat="44.3114" lon="0.8331">
        <ele>126.7</ele>
        <time>2020-06-25T06:41:54.055Z</time>
      </trkpt>
      <trkpt lat="44.31145" lon="0.83287">
        <ele>122.7</ele>
        <time>2020-06-25T06:41:39.055Z</time>
      </trkpt>
      <trkpt lat="44.31147" lon="0.83262">
        <ele>119.5</ele>
        <time>2020-06-25T06:41:23.055Z</time>
      </trkpt>
      <trkpt lat="44.31149" lon="0.83237">
        <ele>117.3</ele>
        <time>2020-06-25T06:41:08.055Z</time>
      </trkpt>
      <trkpt lat="44.31153" lon="0.8321">
        <ele>115.3</ele>
        <time>2020-06-25T06:40:52.055Z</time>
      </trkpt>
      <trkpt lat="44.31151" lon="0.83185">
        <ele>114.6</ele>
        <time>2020-06-25T06:40:36.055Z</time>
      </trkpt>
      <trkpt lat="44.31148" lon="0.8316">
        <ele>114.9</ele>
        <time>2020-06-25T06:40:21.055Z</time>
      </trkpt>
      <trkpt lat="44.3115" lon="0.8313">
        <ele>116.5</ele>
        <time>2020-06-25T06:40:05.055Z</time>
      </trkpt>
      <trkpt lat="44.31156" lon="0.83105">
        <ele>119.5</ele>
        <time>2020-06-25T06:39:50.055Z</time>
      </trkpt>
      <trkpt lat="44.31167" lon="0.83082">
        <ele>123.1</ele>
        <time>2020-06-25T06:39:34.055Z</time>
      </trkpt>
      <trkpt lat="44.31176" lon="0.83062">
        <ele>126.5</ele>
        <time>2020-06-25T06:39:19.055Z</time>
      </trkpt>
      <trkpt lat="44.31182" lon="0.83044">
        <ele>129</ele>
        <time>2020-06-25T06:39:03.055Z</time>
      </trkpt>
      <trkpt lat="44.31188" lon="0.83025">
        <ele>131.8</ele>
        <time>2020-06-25T06:38:48.055Z</time>
      </trkpt>
      <trkpt lat="44.31201" lon="0.83">
        <ele>134.1</ele>
        <time>2020-06-25T06:38:32.055Z</time>
      </trkpt>
      <trkpt lat="44.31206" lon="0.82977">
        <ele>137.4</ele>
        <time>2020-06-25T06:38:16.055Z</time>
      </trkpt>
      <trkpt lat="44.31209" lon="0.82954">
        <ele>141.4</ele>
        <time>2020-06-25T06:38:01.055Z</time>
      </trkpt>
      <trkpt lat="44.3121" lon="0.82929">
        <ele>145.5</ele>
        <time>2020-06-25T06:37:45.055Z</time>
      </trkpt>
      <trkpt lat="44.31212" lon="0.82909">
        <ele>149</ele>
        <time>2020-06-25T06:37:30.055Z</time>
      </trkpt>
      <trkpt lat="44.31216" lon="0.8289">
        <ele>152.7</ele>
        <time>2020-06-25T06:37:14.055Z</time>
      </trkpt>
      <trkpt lat="44.31221" lon="0.82864">
        <ele>156.5</ele>
        <time>2020-06-25T06:36:59.055Z</time>
      </trkpt>
      <trkpt lat="44.31225" lon="0.82841">
        <ele>159.8</ele>
        <time>2020-06-25T06:36:43.055Z</time>
      </trkpt>
      <trkpt lat="44.3122" lon="0.82817">
        <ele>164.1</ele>
        <time>2020-06-25T06:36:27.055Z</time>
      </trkpt>
      <trkpt lat="44.31217" lon="0.82796">
        <ele>168.3</ele>
        <time>2020-06-25T06:36:12.055Z</time>
      </trkpt>
      <trkpt lat="44.31213" lon="0.82772">
        <ele>172.9</ele>
        <time>2020-06-25T06:35:56.055Z</time>
      </trkpt>
      <trkpt lat="44.31204" lon="0.82751">
        <ele>175.8</ele>
        <time>2020-06-25T06:35:41.055Z</time>
      </trkpt>
      <trkpt lat="44.31198" lon="0.82732">
        <ele>178.5</ele>
        <time>2020-06-25T06:35:25.063Z</time>
      </trkpt>
      <trkpt lat="44.31194" lon="0.82715">
        <ele>181.4</ele>
        <time>2020-06-25T06:35:10.063Z</time>
      </trkpt>
      <trkpt lat="44.31185" lon="0.82687">
        <ele>186.1</ele>
        <time>2020-06-25T06:34:54.063Z</time>
      </trkpt>
      <trkpt lat="44.31178" lon="0.82669">
        <ele>189.3</ele>
        <time>2020-06-25T06:34:39.063Z</time>
      </trkpt>
      <trkpt lat="44.31174" lon="0.82654">
        <ele>191.3</ele>
        <time>2020-06-25T06:34:23.063Z</time>
      </trkpt>
      <trkpt lat="44.31183" lon="0.82635">
        <ele>194.1</ele>
        <time>2020-06-25T06:34:07.063Z</time>
      </trkpt>
      <trkpt lat="44.31187" lon="0.82613">
        <ele>196.5</ele>
        <time>2020-06-25T06:33:52.063Z</time>
      </trkpt>
      <trkpt lat="44.31187" lon="0.82589">
        <ele>197.7</ele>
        <time>2020-06-25T06:33:36.063Z</time>
      </trkpt>
      <trkpt lat="44.31183" lon="0.82574">
        <ele>198.5</ele>
        <time>2020-06-25T06:33:21.063Z</time>
      </trkpt>
      <trkpt lat="44.31165" lon="0.82568">
        <ele>199.2</ele>
        <time>2020-06-25T06:33:05.063Z</time>
      </trkpt>
      <trkpt lat="44.31144" lon="0.82568">
        <ele>200.4</ele>
        <time>2020-06-25T06:32:50.063Z</time>
      </trkpt>
      <trkpt lat="44.31132" lon="0.8257">
        <ele>201.6</ele>
        <time>2020-06-25T06:32:34.063Z</time>
      </trkpt>
      <trkpt lat="44.31121" lon="0.82574">
        <ele>203.1</ele>
        <time>2020-06-25T06:32:19.063Z</time>
      </trkpt>
      <trkpt lat="44.31109" lon="0.82566">
        <ele>206.1</ele>
        <time>2020-06-25T06:32:03.063Z</time>
      </trkpt>
      <trkpt lat="44.31098" lon="0.82548">
        <ele>208.8</ele>
        <time>2020-06-25T06:31:47.063Z</time>
      </trkpt>
      <trkpt lat="44.31092" lon="0.8254">
        <ele>209.8</ele>
        <time>2020-06-25T06:31:32.047Z</time>
      </trkpt>
      <trkpt lat="44.31071" lon="0.82524">
        <ele>211.6</ele>
        <time>2020-06-25T06:31:16.047Z</time>
      </trkpt>
      <trkpt lat="44.31061" lon="0.8253">
        <ele>211.7</ele>
        <time>2020-06-25T06:31:01.031Z</time>
      </trkpt>
      <trkpt lat="44.31036" lon="0.82524">
        <ele>212.7</ele>
        <time>2020-06-25T06:30:45.031Z</time>
      </trkpt>
      <trkpt lat="44.3102" lon="0.82509">
        <ele>213</ele>
        <time>2020-06-25T06:30:30.031Z</time>
      </trkpt>
      <trkpt lat="44.30999" lon="0.82504">
        <ele>213</ele>
        <time>2020-06-25T06:30:14.031Z</time>
      </trkpt>
      <trkpt lat="44.30977" lon="0.82498">
        <ele>213.8</ele>
        <time>2020-06-25T06:29:58.031Z</time>
      </trkpt>
      <trkpt lat="44.3096" lon="0.82482">
        <ele>213.6</ele>
        <time>2020-06-25T06:29:43.000Z</time>
      </trkpt>
      <trkpt lat="44.30952" lon="0.8244">
        <ele>213</ele>
        <time>2020-06-25T06:29:27.000Z</time>
      </trkpt>
      <trkpt lat="44.30947" lon="0.82439">
        <ele>213</ele>
        <time>2020-06-25T06:29:12.000Z</time>
      </trkpt>
      <trkpt lat="44.30948" lon="0.82436">
        <ele>213</ele>
        <time>2020-06-25T06:29:03.000Z</time>
      </trkpt>
    </trkseg>
  </trk>
</gpx>